Time;durP1;ratioP1;P1;durP2;ratioP2;P2;SDS_P1;SDS_P2;PMS_P1;PMS_P2;Temp;Humidity;BMP_temperature;BMP_pressure;BME280_temperature;BME280_humidity;BME280_pressure;Samples;Min_cycle;Max_cycle;Signal;HPM_P1;HPM_P2
2021/03/08 00:00:51;;;;;;;;;;;;;;;;;;20870679;28;1991;-42
2021/03/08 00:11:12;;;;;;;;;;;;;;;;;;20836907;28;4374;-40
2021/03/08 00:21:47;;;;;;;;;;;;;;;;;;20964140;28;8283;-42
2021/03/08 00:32:22;;;;;;;;;;;;;;;;;;20958365;28;1898;-42
2021/03/08 00:42:57;;;;;;;;;;;;;;;;;;20980029;28;1080;-41
2021/03/08 00:53:18;;;;;;;;;;;;;;;;;;20978817;28;1902;-41
2021/03/08 01:03:42;;;;;;;;;;;;;;;;;;20981037;28;1140;-42
2021/03/08 01:14:04;;;;;;;;;;;;;;;;;;20831756;28;1902;-42
2021/03/08 01:24:25;;;;;;;;;;;;;;;;;;20826081;28;1175;-41
2021/03/08 01:34:46;;;;;;;;;;;;;;;;;;20809716;28;1906;-39
2021/03/08 01:45:09;;;;;;;;;;;;;;;;;;20812988;28;1151;-39
2021/03/08 01:55:29;;;;;;;;;;;;;;;;;;20811108;28;1906;-39
2021/03/08 02:05:49;;;;;;;;;;;;;;;;;;20831470;28;1301;-40
2021/03/08 02:16:32;;;;;;;;;;;;;;;;;;20985309;28;1894;-41
2021/03/08 02:27:03;;;;;;;;;;;;;;;;;;20943835;28;1091;-39
2021/03/08 02:37:26;;;;;;;;;;;;;;;;;;20972717;28;1987;-40
2021/03/08 02:47:47;;;;;;;;;;;;;;;;;;20972530;28;1166;-41
2021/03/08 02:58:09;;;;;;;;;;;;;;;;;;20954445;28;1960;-40
2021/03/08 03:08:44;;;;;;;;;;;;;;;;;;20934350;28;1379;-41
2021/03/08 03:19:05;;;;;;;;;;;;;;;;;;20884835;28;1902;-41
2021/03/08 03:29:26;;;;;;;;;;;;;;;;;;20884479;28;1236;-40
2021/03/08 03:39:47;;;;;;;;;;;;;;;;;;20870207;28;1902;-41
2021/03/08 03:50:09;;;;;;;;;;;;;;;;;;20884700;28;1527;-40
2021/03/08 04:00:33;;;;;;;;;;;;;;;;;;20883029;28;1890;-42
2021/03/08 04:11:08;;;;;;;;;;;;;;;;;;20950868;28;1301;-41
2021/03/08 04:21:29;;;;;;;;;;;;;;;;;;20967084;28;1914;-41
2021/03/08 04:31:49;;;;;;;;;;;;;;;;;;20922888;28;1366;-40
2021/03/08 04:42:25;;;;;;;;;;;;;;;;;;20963935;28;1906;-39
2021/03/08 04:53:00;;;;;;;;;;;;;;;;;;20965664;28;1902;-41
2021/03/08 05:03:21;;;;;;;;;;;;;;;;;;20970695;28;1248;-40
2021/03/08 05:13:42;;;;;;;;;;;;;;;;;;20887362;28;1997;-40
2021/03/08 05:24:17;;;;;;;;;;;;;;;;;;20895778;28;1122;-42
2021/03/08 05:34:40;;;;;;;;;;;;;;;;;;20894891;28;1902;-42
2021/03/08 05:45:05;;;;;;;;;;;;;;;;;;20894241;28;1054;-42
2021/03/08 05:55:52;;;;;;;;;;;;;;;;;;20876744;28;1898;-41
2021/03/08 06:06:13;;;;;;;;;;;;;;;;;;20903911;28;1348;-43
2021/03/08 06:16:34;;;;;;;;;;;;;;;;;;20971452;28;1902;-43
2021/03/08 06:27:10;;;;;;;;;;;;;;;;;;20956766;28;1253;-43
2021/03/08 06:37:46;;;;;;;;;;;;;;;;;;20958440;28;1993;-42
2021/03/08 06:48:20;;;;;;;;;;;;;;;;;;20971946;28;1157;-42
2021/03/08 06:59:05;;;;;;;;;;;;;;;;;;20954132;28;1945;-42
2021/03/08 07:09:47;;;;;;;;;;;;;;;;;;20925821;28;1344;-40
2021/03/08 07:20:25;;;;;;;;;;;;;;;;;;20869916;28;1902;-44
2021/03/08 07:30:45;;;;;;;;;;;;;;;;;;20882448;28;1594;-43
2021/03/08 07:41:19;;;;;;;;;;;;;;;;;;20885019;28;1902;-40
2021/03/08 07:52:02;;;;;;;;;;;;;;;;;;20880857;28;1617;-40
2021/03/08 08:02:23;;;;;;;;;;;;;;;;;;20882231;28;1977;-41
2021/03/08 08:12:55;;;;;;;;;;;;;;;;;;20937404;28;1624;-40
2021/03/08 08:23:34;;;;;;;;;;;;;;;;;;20963715;28;1209;-41
2021/03/08 08:33:54;;;;;;;;;;;;;;;;;;20965914;28;1988;-40
2021/03/08 08:44:29;;;;;;;;;;;;;;;;;;20977396;28;1513;-40
2021/03/08 08:54:51;;;;;;;;;;;;;;;;;;20601574;28;9999809;-41
2021/03/08 09:05:35;;;;;;;;;;;;;;;;;;20922275;28;1258;-41
2021/03/08 09:16:37;;;;;;;;;;;;;;;;;;20901091;28;1910;-41
2021/03/08 09:26:59;;;;;;;;;;;;;;;;;;20772520;28;1021;-42
2021/03/08 09:37:19;;;;;;;;;;;;;;;;;;20800453;28;1903;-40
2021/03/08 09:47:54;;;;;;;;;;;;;;;;;;20799637;28;2660;-41
2021/03/08 09:58:23;;;;;;;;;;;;;;;;;;20810363;28;1902;-40
2021/03/08 10:08:44;;;;;;;;;;;;;;;;;;20874100;28;1273;-40
2021/03/08 10:19:08;;;;;;;;;;;;;;;;;;20986075;28;1986;-40
2021/03/08 10:29:31;;;;;;;;;;;;;;;;;;20956502;28;1263;-41
2021/03/08 10:40:06;;;;;;;;;;;;;;;;;;20970601;28;1989;-42
2021/03/08 10:50:42;;;;;;;;;;;;;;;;;;20971572;28;1204;-42
2021/03/08 11:01:08;;;;;;;;;;;;;;;;;;20970148;28;1979;-42
2021/03/08 11:11:44;;;;;;;;;;;;;;;;;;20897326;28;1407;-43
2021/03/08 11:22:21;;;;;;;;;;;;;;;;;;20899956;28;2351;-41
2021/03/08 11:32:57;;;;;;;;;;;;;;;;;;20893110;28;1358;-41
2021/03/08 11:43:22;;;;;;;;;;;;;;;;;;20880996;28;1151;-41
2021/03/08 11:53:43;;;;;;;;;;;;;;;;;;20871397;28;1879;-41
2021/03/08 12:04:18;;;;;;;;;;;;;;;;;;20872826;28;1131;-41
2021/03/08 12:14:53;;;;;;;;;;;;;;;;;;20459441;28;10001223;-41
2021/03/08 12:25:15;;;;;;;;;;;;;;;;;;20804376;28;1120;-41
2021/03/08 12:35:35;;;;;;;;;;;;;;;;;;20790066;28;1902;-42
2021/03/08 12:45:56;;;;;;;;;;;;;;;;;;20805212;28;1081;-42
2021/03/08 12:56:31;;;;;;;;;;;;;;;;;;20806891;28;1910;-42
2021/03/08 13:07:06;;;;;;;;;;;;;;;;;;20854036;28;2136;-41
2021/03/08 13:17:27;;;;;;;;;;;;;;;;;;20825006;28;1973;-42
2021/03/08 13:27:47;;;;;;;;;;;;;;;;;;20868267;28;1380;-40
2021/03/08 13:38:07;;;;;;;;;;;;;;;;;;20966483;28;1977;-40
2021/03/08 13:48:27;;;;;;;;;;;;;;;;;;20967144;28;1304;-42
2021/03/08 13:58:48;;;;;;;;;;;;;;;;;;20921716;28;1981;-42
2021/03/08 14:09:24;;;;;;;;;;;;;;;;;;20900706;28;2534;-43
2021/03/08 14:19:45;;;;;;;;;;;;;;;;;;20924319;28;1938;-43
2021/03/08 14:30:20;;;;;;;;;;;;;;;;;;20963500;28;1266;-43
2021/03/08 14:40:55;;;;;;;;;;;;;;;;;;20910581;28;1985;-43
2021/03/08 14:51:16;;;;;;;;;;;;;;;;;;20913333;28;1327;-43
2021/03/08 15:01:50;;;;;;;;;;;;;;;;;;20945144;28;1894;-43
2021/03/08 15:12:25;;;;;;;;;;;;;;;;;;20914391;28;2485;-43
2021/03/08 15:23:00;;;;;;;;;;;;;;;;;;20893173;28;1902;-41
2021/03/08 15:33:21;;;;;;;;;;;;;;;;;;20923892;28;1255;-43
2021/03/08 15:43:55;;;;;;;;;;;;;;;;;;20873584;28;1043;-42
2021/03/08 15:54:30;;;;;;;;;;;;;;;;;;20873777;28;2043;-43
2021/03/08 16:04:50;;;;;;;;;;;;;;;;;;20872010;28;2081;-43
2021/03/08 16:15:25;;;;;;;;;;;;;;;;;;20821007;28;2180;-42
2021/03/08 16:26:06;;;;;;;;;;;;;;;;;;20773036;28;1087;-42
2021/03/08 16:36:41;;;;;;;;;;;;;;;;;;20788108;28;1975;-43
2021/03/08 16:47:08;;;;;;;;;;;;;;;;;;20772200;28;1051;-41
2021/03/08 16:57:44;;;;;;;;;;;;;;;;;;20792226;28;1911;-44
2021/03/08 17:08:05;;;;;;;;;;;;;;;;;;20800431;28;2198;-44
2021/03/08 17:18:40;;;;;;;;;;;;;;;;;;20800040;28;3437;-44
2021/03/08 17:29:15;;;;;;;;;;;;;;;;;;20812351;28;1185;-43
2021/03/08 17:39:50;;;;;;;;;;;;;;;;;;20797662;28;1906;-44
2021/03/08 17:50:12;;;;;;;;;;;;;;;;;;20797584;28;1311;-43
2021/03/08 18:00:48;;;;;;;;;;;;;;;;;;20797032;28;1985;-44
2021/03/08 18:11:22;;;;;;;;;;;;;;;;;;20853107;28;2075;-43
2021/03/08 18:21:43;;;;;;;;;;;;;;;;;;20938701;28;1910;-43
2021/03/08 18:32:18;;;;;;;;;;;;;;;;;;20943557;28;2024;-43
2021/03/08 18:42:39;;;;;;;;;;;;;;;;;;20953812;28;1921;-43
2021/03/08 18:53:15;;;;;;;;;;;;;;;;;;20932705;28;1285;-43
2021/03/08 19:03:49;;;;;;;;;;;;;;;;;;20960173;28;1047;-45
2021/03/08 19:14:24;;;;;;;;;;;;;;;;;;20877933;28;2151;-42
2021/03/08 19:24:46;;;;;;;;;;;;;;;;;;20842217;28;1584;-41
2021/03/08 19:35:22;;;;;;;;;;;;;;;;;;20804365;28;1906;-41
2021/03/08 19:45:57;;;;;;;;;;;;;;;;;;20766599;28;1198;-42
2021/03/08 19:56:32;;;;;;;;;;;;;;;;;;20791360;28;1898;-42
2021/03/08 20:07:06;;;;;;;;;;;;;;;;;;20790471;28;2514;-42
2021/03/08 20:17:41;;;;;;;;;;;;;;;;;;20805704;28;1980;-42
2021/03/08 20:28:16;;;;;;;;;;;;;;;;;;20869880;28;1908;-43
2021/03/08 20:38:52;;;;;;;;;;;;;;;;;;20896439;28;1981;-42
2021/03/08 20:49:13;;;;;;;;;;;;;;;;;;20542841;28;10000535;-42
2021/03/08 20:59:35;;;;;;;;;;;;;;;;;;20895906;28;1906;-42
2021/03/08 21:10:17;;;;;;;;;;;;;;;;;;20926886;28;1577;-44
2021/03/08 21:20:38;;;;;;;;;;;;;;;;;;20963934;28;1910;-46
2021/03/08 21:30:59;;;;;;;;;;;;;;;;;;20915736;28;1151;-37
2021/03/08 21:41:34;;;;;;;;;;;;;;;;;;19117601;28;10000991;-39
2021/03/08 21:52:09;;;;;;;;;;;;;;;;;;20897386;28;2260;-36
2021/03/08 22:02:30;;;;;;;;;;;;;;;;;;20909594;28;1910;-33
2021/03/08 22:13:05;;;;;;;;;;;;;;;;;;20898977;28;1340;-35
2021/03/08 22:23:26;;;;;;;;;;;;;;;;;;20903104;28;1910;-31
2021/03/08 22:33:47;;;;;;;;;;;;;;;;;;20971673;28;1140;-33
2021/03/08 22:44:22;;;;;;;;;;;;;;;;;;20959687;28;1140;-33
2021/03/08 22:54:57;;;;;;;;;;;;;;;;;;20955164;28;1906;-35
2021/03/08 23:05:20;;;;;;;;;;;;;;;;;;20896253;28;1241;-31
2021/03/08 23:15:42;;;;;;;;;;;;;;;;;;20856127;28;2015;-35
2021/03/08 23:26:17;;;;;;;;;;;;;;;;;;20887688;28;973;-32
2021/03/08 23:36:38;;;;;;;;;;;;;;;;;;20884204;28;1910;-34
2021/03/08 23:46:58;;;;;;;;;;;;;;;;;;20886322;28;1209;-35
2021/03/08 23:57:19;;;;;;;;;;;;;;;;;;20893880;28;1910;-34
